sensor_id;sensor_type;location;lat;lon;timestamp;P1;durP1;ratioP1;P2;durP2;ratioP2
16510;SDS011;8368;48.772;8.754;2023-12-29T00:01:32;4.20;;;3.40;;
16510;SDS011;8368;48.772;8.754;2023-12-29T00:03:57;5.43;;;3.30;;
16510;SDS011;8368;48.772;8.754;2023-12-29T00:06:23;3.43;;;3.13;;
16510;SDS011;8368;48.772;8.754;2023-12-29T00:08:48;3.53;;;3.33;;
16510;SDS011;8368;48.772;8.754;2023-12-29T00:11:17;3.97;;;3.23;;
16510;SDS011;8368;48.772;8.754;2023-12-29T00:13:46;3.37;;;3.17;;
16510;SDS011;8368;48.772;8.754;2023-12-29T00:16:12;3.57;;;3.20;;
16510;SDS011;8368;48.772;8.754;2023-12-29T00:18:38;3.87;;;3.10;;
16510;SDS011;8368;48.772;8.754;2023-12-29T00:21:04;3.43;;;3.23;;
16510;SDS011;8368;48.772;8.754;2023-12-29T00:23:30;4.40;;;3.50;;
16510;SDS011;8368;48.772;8.754;2023-12-29T00:25:55;3.60;;;3.30;;
16510;SDS011;8368;48.772;8.754;2023-12-29T00:28:21;3.83;;;3.47;;
16510;SDS011;8368;48.772;8.754;2023-12-29T00:30:46;4.30;;;3.50;;
16510;SDS011;8368;48.772;8.754;2023-12-29T00:33:12;3.77;;;3.37;;
16510;SDS011;8368;48.772;8.754;2023-12-29T00:35:37;6.30;;;3.50;;
16510;SDS011;8368;48.772;8.754;2023-12-29T00:38:04;3.87;;;3.47;;
16510;SDS011;8368;48.772;8.754;2023-12-29T00:40:30;4.13;;;3.77;;
16510;SDS011;8368;48.772;8.754;2023-12-29T00:42:56;4.90;;;3.80;;
16510;SDS011;8368;48.772;8.754;2023-12-29T00:45:21;3.90;;;3.60;;
16510;SDS011;8368;48.772;8.754;2023-12-29T00:47:47;4.30;;;3.83;;
16510;SDS011;8368;48.772;8.754;2023-12-29T00:50:13;4.43;;;3.63;;
16510;SDS011;8368;48.772;8.754;2023-12-29T00:52:39;3.87;;;3.60;;
16510;SDS011;8368;48.772;8.754;2023-12-29T00:55:05;4.33;;;4.00;;
16510;SDS011;8368;48.772;8.754;2023-12-29T00:57:30;4.67;;;4.17;;
16510;SDS011;8368;48.772;8.754;2023-12-29T00:59:56;5.53;;;3.77;;
16510;SDS011;8368;48.772;8.754;2023-12-29T01:02:21;4.40;;;3.90;;
16510;SDS011;8368;48.772;8.754;2023-12-29T01:04:47;4.37;;;3.70;;
16510;SDS011;8368;48.772;8.754;2023-12-29T01:07:13;4.40;;;3.97;;
16510;SDS011;8368;48.772;8.754;2023-12-29T01:09:39;4.20;;;3.80;;
16510;SDS011;8368;48.772;8.754;2023-12-29T01:12:07;5.40;;;3.77;;
16510;SDS011;8368;48.772;8.754;2023-12-29T01:14:33;4.60;;;4.20;;
16510;SDS011;8368;48.772;8.754;2023-12-29T01:16:59;6.60;;;4.50;;
16510;SDS011;8368;48.772;8.754;2023-12-29T01:19:24;6.80;;;4.20;;
16510;SDS011;8368;48.772;8.754;2023-12-29T01:21:50;6.70;;;3.77;;
16510;SDS011;8368;48.772;8.754;2023-12-29T01:24:15;3.90;;;3.60;;
16510;SDS011;8368;48.772;8.754;2023-12-29T01:26:41;5.20;;;3.70;;
16510;SDS011;8368;48.772;8.754;2023-12-29T01:29:06;3.67;;;3.37;;
16510;SDS011;8368;48.772;8.754;2023-12-29T01:31:32;4.60;;;3.97;;
16510;SDS011;8368;48.772;8.754;2023-12-29T01:33:58;4.17;;;3.77;;
16510;SDS011;8368;48.772;8.754;2023-12-29T01:36:24;4.13;;;3.77;;
16510;SDS011;8368;48.772;8.754;2023-12-29T01:38:49;4.60;;;3.47;;
16510;SDS011;8368;48.772;8.754;2023-12-29T01:41:15;4.70;;;4.03;;
16510;SDS011;8368;48.772;8.754;2023-12-29T01:46:40;6.37;;;3.80;;
16510;SDS011;8368;48.772;8.754;2023-12-29T01:49:06;4.07;;;3.77;;
16510;SDS011;8368;48.772;8.754;2023-12-29T01:51:32;4.70;;;3.73;;
16510;SDS011;8368;48.772;8.754;2023-12-29T01:53:57;6.00;;;4.23;;
16510;SDS011;8368;48.772;8.754;2023-12-29T01:56:24;4.07;;;3.77;;
16510;SDS011;8368;48.772;8.754;2023-12-29T01:58:50;4.13;;;3.73;;
16510;SDS011;8368;48.772;8.754;2023-12-29T02:01:19;3.90;;;3.60;;
16510;SDS011;8368;48.772;8.754;2023-12-29T02:03:45;4.27;;;3.57;;
16510;SDS011;8368;48.772;8.754;2023-12-29T02:06:11;5.43;;;4.10;;
16510;SDS011;8368;48.772;8.754;2023-12-29T02:08:39;4.17;;;3.87;;
16510;SDS011;8368;48.772;8.754;2023-12-29T02:11:06;3.90;;;3.60;;
16510;SDS011;8368;48.772;8.754;2023-12-29T02:13:31;4.63;;;4.13;;
16510;SDS011;8368;48.772;8.754;2023-12-29T02:15:58;4.30;;;3.90;;
16510;SDS011;8368;48.772;8.754;2023-12-29T02:18:30;4.47;;;3.93;;
16510;SDS011;8368;48.772;8.754;2023-12-29T02:20:58;4.53;;;4.13;;
16510;SDS011;8368;48.772;8.754;2023-12-29T02:23:23;4.50;;;4.13;;
16510;SDS011;8368;48.772;8.754;2023-12-29T02:25:49;5.20;;;3.77;;
16510;SDS011;8368;48.772;8.754;2023-12-29T02:28:20;4.83;;;4.33;;
16510;SDS011;8368;48.772;8.754;2023-12-29T02:31:10;3.93;;;3.63;;
16510;SDS011;8368;48.772;8.754;2023-12-29T02:33:41;4.90;;;3.67;;
16510;SDS011;8368;48.772;8.754;2023-12-29T02:36:09;5.90;;;4.00;;
16510;SDS011;8368;48.772;8.754;2023-12-29T02:38:35;4.20;;;3.90;;
16510;SDS011;8368;48.772;8.754;2023-12-29T02:41:01;3.77;;;3.53;;
16510;SDS011;8368;48.772;8.754;2023-12-29T02:43:27;3.87;;;3.60;;
16510;SDS011;8368;48.772;8.754;2023-12-29T02:45:52;4.30;;;3.90;;
16510;SDS011;8368;48.772;8.754;2023-12-29T02:48:18;4.40;;;4.10;;
16510;SDS011;8368;48.772;8.754;2023-12-29T02:50:43;4.40;;;4.00;;
16510;SDS011;8368;48.772;8.754;2023-12-29T02:53:09;4.80;;;4.30;;
16510;SDS011;8368;48.772;8.754;2023-12-29T02:55:34;4.90;;;4.40;;
16510;SDS011;8368;48.772;8.754;2023-12-29T02:58:00;4.13;;;3.80;;
16510;SDS011;8368;48.772;8.754;2023-12-29T03:00:25;4.30;;;3.83;;
16510;SDS011;8368;48.772;8.754;2023-12-29T03:02:51;4.47;;;4.07;;
16510;SDS011;8368;48.772;8.754;2023-12-29T03:05:16;4.53;;;4.00;;
16510;SDS011;8368;48.772;8.754;2023-12-29T03:07:42;4.93;;;4.20;;
16510;SDS011;8368;48.772;8.754;2023-12-29T03:10:07;4.57;;;4.10;;
16510;SDS011;8368;48.772;8.754;2023-12-29T03:12:33;4.40;;;3.83;;
16510;SDS011;8368;48.772;8.754;2023-12-29T03:14:59;5.17;;;4.57;;
16510;SDS011;8368;48.772;8.754;2023-12-29T03:17:25;4.90;;;4.40;;
16510;SDS011;8368;48.772;8.754;2023-12-29T03:19:50;7.17;;;4.13;;
16510;SDS011;8368;48.772;8.754;2023-12-29T03:22:17;4.87;;;4.30;;
16510;SDS011;8368;48.772;8.754;2023-12-29T03:24:43;8.03;;;4.30;;
16510;SDS011;8368;48.772;8.754;2023-12-29T03:27:08;6.30;;;4.90;;
16510;SDS011;8368;48.772;8.754;2023-12-29T03:29:34;5.57;;;4.40;;
16510;SDS011;8368;48.772;8.754;2023-12-29T03:31:59;6.07;;;4.60;;
16510;SDS011;8368;48.772;8.754;2023-12-29T03:34:25;4.60;;;4.20;;
16510;SDS011;8368;48.772;8.754;2023-12-29T03:36:50;4.60;;;4.20;;
16510;SDS011;8368;48.772;8.754;2023-12-29T03:39:16;4.40;;;4.10;;
16510;SDS011;8368;48.772;8.754;2023-12-29T03:41:42;8.10;;;4.27;;
16510;SDS011;8368;48.772;8.754;2023-12-29T03:44:07;6.83;;;4.23;;
16510;SDS011;8368;48.772;8.754;2023-12-29T03:46:33;4.70;;;3.60;;
16510;SDS011;8368;48.772;8.754;2023-12-29T03:48:58;5.23;;;4.17;;
16510;SDS011;8368;48.772;8.754;2023-12-29T03:51:24;4.40;;;4.00;;
16510;SDS011;8368;48.772;8.754;2023-12-29T03:53:49;3.90;;;3.60;;
16510;SDS011;8368;48.772;8.754;2023-12-29T03:56:16;4.53;;;3.73;;
16510;SDS011;8368;48.772;8.754;2023-12-29T03:58:43;3.87;;;3.57;;
16510;SDS011;8368;48.772;8.754;2023-12-29T04:01:10;5.03;;;3.50;;
16510;SDS011;8368;48.772;8.754;2023-12-29T04:03:36;6.13;;;4.00;;
16510;SDS011;8368;48.772;8.754;2023-12-29T04:06:02;3.10;;;2.90;;
16510;SDS011;8368;48.772;8.754;2023-12-29T04:08:28;3.43;;;3.20;;
16510;SDS011;8368;48.772;8.754;2023-12-29T04:10:53;3.33;;;3.00;;
16510;SDS011;8368;48.772;8.754;2023-12-29T04:13:19;3.23;;;3.03;;
16510;SDS011;8368;48.772;8.754;2023-12-29T04:15:44;3.20;;;3.00;;
16510;SDS011;8368;48.772;8.754;2023-12-29T04:18:10;3.40;;;3.10;;
16510;SDS011;8368;48.772;8.754;2023-12-29T04:20:35;3.53;;;3.33;;
16510;SDS011;8368;48.772;8.754;2023-12-29T04:23:01;3.87;;;3.20;;
16510;SDS011;8368;48.772;8.754;2023-12-29T04:25:27;3.53;;;3.27;;
16510;SDS011;8368;48.772;8.754;2023-12-29T04:27:53;3.03;;;2.83;;
16510;SDS011;8368;48.772;8.754;2023-12-29T04:30:18;3.20;;;3.00;;
16510;SDS011;8368;48.772;8.754;2023-12-29T04:32:44;3.30;;;3.10;;
16510;SDS011;8368;48.772;8.754;2023-12-29T04:35:09;2.87;;;2.73;;
16510;SDS011;8368;48.772;8.754;2023-12-29T04:37:37;4.97;;;2.97;;
16510;SDS011;8368;48.772;8.754;2023-12-29T04:40:03;2.90;;;2.70;;
16510;SDS011;8368;48.772;8.754;2023-12-29T04:42:29;3.23;;;2.93;;
16510;SDS011;8368;48.772;8.754;2023-12-29T04:44:55;3.40;;;3.20;;
16510;SDS011;8368;48.772;8.754;2023-12-29T04:47:20;3.53;;;3.07;;
16510;SDS011;8368;48.772;8.754;2023-12-29T04:49:46;2.80;;;2.60;;
16510;SDS011;8368;48.772;8.754;2023-12-29T04:52:11;3.13;;;2.93;;
16510;SDS011;8368;48.772;8.754;2023-12-29T04:54:37;2.93;;;2.73;;
16510;SDS011;8368;48.772;8.754;2023-12-29T04:57:02;2.97;;;2.77;;
16510;SDS011;8368;48.772;8.754;2023-12-29T04:59:28;3.00;;;2.80;;
16510;SDS011;8368;48.772;8.754;2023-12-29T05:01:53;2.17;;;2.07;;
16510;SDS011;8368;48.772;8.754;2023-12-29T05:04:19;2.97;;;2.77;;
16510;SDS011;8368;48.772;8.754;2023-12-29T05:06:44;2.70;;;2.47;;
16510;SDS011;8368;48.772;8.754;2023-12-29T05:09:10;2.23;;;2.13;;
16510;SDS011;8368;48.772;8.754;2023-12-29T05:11:36;2.80;;;2.60;;
16510;SDS011;8368;48.772;8.754;2023-12-29T05:14:01;2.87;;;2.67;;
16510;SDS011;8368;48.772;8.754;2023-12-29T05:16:27;2.53;;;2.43;;
16510;SDS011;8368;48.772;8.754;2023-12-29T05:18:52;2.80;;;2.70;;
16510;SDS011;8368;48.772;8.754;2023-12-29T05:21:18;2.57;;;2.37;;
16510;SDS011;8368;48.772;8.754;2023-12-29T05:23:44;3.00;;;2.70;;
16510;SDS011;8368;48.772;8.754;2023-12-29T05:26:11;3.00;;;2.77;;
16510;SDS011;8368;48.772;8.754;2023-12-29T05:28:36;2.80;;;2.60;;
16510;SDS011;8368;48.772;8.754;2023-12-29T05:31:02;2.30;;;2.20;;
16510;SDS011;8368;48.772;8.754;2023-12-29T05:33:31;2.97;;;2.77;;
16510;SDS011;8368;48.772;8.754;2023-12-29T05:35:57;2.50;;;2.40;;
16510;SDS011;8368;48.772;8.754;2023-12-29T05:38:23;2.13;;;2.03;;
16510;SDS011;8368;48.772;8.754;2023-12-29T05:40:49;3.13;;;2.57;;
16510;SDS011;8368;48.772;8.754;2023-12-29T05:43:15;2.73;;;2.53;;
16510;SDS011;8368;48.772;8.754;2023-12-29T05:45:44;2.93;;;2.50;;
16510;SDS011;8368;48.772;8.754;2023-12-29T05:48:10;2.10;;;2.00;;
16510;SDS011;8368;48.772;8.754;2023-12-29T05:50:35;2.87;;;2.77;;
16510;SDS011;8368;48.772;8.754;2023-12-29T05:53:00;2.20;;;2.10;;
16510;SDS011;8368;48.772;8.754;2023-12-29T05:55:26;2.33;;;2.13;;
16510;SDS011;8368;48.772;8.754;2023-12-29T05:57:51;2.20;;;2.10;;
16510;SDS011;8368;48.772;8.754;2023-12-29T06:00:17;2.47;;;2.37;;
16510;SDS011;8368;48.772;8.754;2023-12-29T06:02:43;3.23;;;2.93;;
16510;SDS011;8368;48.772;8.754;2023-12-29T06:05:11;2.20;;;2.10;;
16510;SDS011;8368;48.772;8.754;2023-12-29T06:07:37;2.50;;;2.30;;
16510;SDS011;8368;48.772;8.754;2023-12-29T06:10:03;2.33;;;2.23;;
16510;SDS011;8368;48.772;8.754;2023-12-29T06:12:29;2.07;;;1.97;;
16510;SDS011;8368;48.772;8.754;2023-12-29T06:14:55;2.40;;;2.00;;
16510;SDS011;8368;48.772;8.754;2023-12-29T06:17:20;2.50;;;1.80;;
16510;SDS011;8368;48.772;8.754;2023-12-29T06:19:46;2.57;;;2.47;;
16510;SDS011;8368;48.772;8.754;2023-12-29T06:22:11;2.00;;;1.90;;
16510;SDS011;8368;48.772;8.754;2023-12-29T06:24:39;2.00;;;1.90;;
16510;SDS011;8368;48.772;8.754;2023-12-29T06:27:05;1.53;;;1.53;;
16510;SDS011;8368;48.772;8.754;2023-12-29T06:29:32;2.50;;;1.43;;
16510;SDS011;8368;48.772;8.754;2023-12-29T06:31:57;1.37;;;1.37;;
16510;SDS011;8368;48.772;8.754;2023-12-29T06:34:23;1.73;;;1.50;;
16510;SDS011;8368;48.772;8.754;2023-12-29T06:36:48;1.30;;;1.30;;
16510;SDS011;8368;48.772;8.754;2023-12-29T06:39:14;1.50;;;1.50;;
16510;SDS011;8368;48.772;8.754;2023-12-29T06:41:39;1.50;;;1.50;;
16510;SDS011;8368;48.772;8.754;2023-12-29T06:44:05;1.73;;;1.63;;
16510;SDS011;8368;48.772;8.754;2023-12-29T06:46:30;1.50;;;1.50;;
16510;SDS011;8368;48.772;8.754;2023-12-29T06:48:56;1.43;;;1.43;;
16510;SDS011;8368;48.772;8.754;2023-12-29T06:51:21;1.37;;;1.37;;
16510;SDS011;8368;48.772;8.754;2023-12-29T06:53:48;1.30;;;1.30;;
16510;SDS011;8368;48.772;8.754;2023-12-29T06:56:14;1.30;;;1.30;;
16510;SDS011;8368;48.772;8.754;2023-12-29T06:58:41;1.40;;;1.40;;
16510;SDS011;8368;48.772;8.754;2023-12-29T07:01:06;1.10;;;1.10;;
16510;SDS011;8368;48.772;8.754;2023-12-29T07:03:32;1.17;;;1.17;;
16510;SDS011;8368;48.772;8.754;2023-12-29T07:05:59;1.33;;;1.33;;
16510;SDS011;8368;48.772;8.754;2023-12-29T07:08:26;1.37;;;1.37;;
16510;SDS011;8368;48.772;8.754;2023-12-29T07:10:52;1.43;;;1.33;;
16510;SDS011;8368;48.772;8.754;2023-12-29T07:13:17;1.50;;;1.40;;
16510;SDS011;8368;48.772;8.754;2023-12-29T07:15:44;1.37;;;1.30;;
16510;SDS011;8368;48.772;8.754;2023-12-29T07:18:10;1.30;;;1.30;;
16510;SDS011;8368;48.772;8.754;2023-12-29T07:20:35;1.30;;;1.30;;
16510;SDS011;8368;48.772;8.754;2023-12-29T07:23:01;2.10;;;1.30;;
16510;SDS011;8368;48.772;8.754;2023-12-29T07:25:27;1.90;;;1.80;;
16510;SDS011;8368;48.772;8.754;2023-12-29T07:27:52;1.50;;;1.40;;
16510;SDS011;8368;48.772;8.754;2023-12-29T07:30:18;1.50;;;1.40;;
16510;SDS011;8368;48.772;8.754;2023-12-29T07:32:44;2.07;;;1.80;;
16510;SDS011;8368;48.772;8.754;2023-12-29T07:35:09;1.80;;;1.70;;
16510;SDS011;8368;48.772;8.754;2023-12-29T07:37:35;2.60;;;2.43;;
16510;SDS011;8368;48.772;8.754;2023-12-29T07:40:00;1.60;;;1.50;;
16510;SDS011;8368;48.772;8.754;2023-12-29T07:42:26;1.57;;;1.47;;
16510;SDS011;8368;48.772;8.754;2023-12-29T07:44:51;1.83;;;1.70;;
16510;SDS011;8368;48.772;8.754;2023-12-29T07:47:17;1.47;;;1.40;;
16510;SDS011;8368;48.772;8.754;2023-12-29T07:49:43;2.00;;;1.90;;
16510;SDS011;8368;48.772;8.754;2023-12-29T07:52:08;1.30;;;1.30;;
16510;SDS011;8368;48.772;8.754;2023-12-29T07:54:34;1.30;;;1.30;;
16510;SDS011;8368;48.772;8.754;2023-12-29T07:56:59;1.67;;;1.57;;
16510;SDS011;8368;48.772;8.754;2023-12-29T07:59:25;1.57;;;1.57;;
16510;SDS011;8368;48.772;8.754;2023-12-29T08:01:51;1.43;;;1.43;;
16510;SDS011;8368;48.772;8.754;2023-12-29T08:04:17;1.57;;;1.57;;
16510;SDS011;8368;48.772;8.754;2023-12-29T08:06:42;1.60;;;1.50;;
16510;SDS011;8368;48.772;8.754;2023-12-29T08:09:08;1.50;;;1.40;;
16510;SDS011;8368;48.772;8.754;2023-12-29T08:11:34;1.67;;;1.67;;
16510;SDS011;8368;48.772;8.754;2023-12-29T08:13:59;1.80;;;1.70;;
16510;SDS011;8368;48.772;8.754;2023-12-29T08:16:26;1.60;;;1.50;;
16510;SDS011;8368;48.772;8.754;2023-12-29T08:18:51;1.50;;;1.50;;
16510;SDS011;8368;48.772;8.754;2023-12-29T08:21:17;1.70;;;1.70;;
16510;SDS011;8368;48.772;8.754;2023-12-29T08:23:48;2.47;;;2.23;;
16510;SDS011;8368;48.772;8.754;2023-12-29T08:26:14;1.60;;;1.50;;
16510;SDS011;8368;48.772;8.754;2023-12-29T08:28:40;1.60;;;1.57;;
16510;SDS011;8368;48.772;8.754;2023-12-29T08:31:06;2.40;;;2.10;;
16510;SDS011;8368;48.772;8.754;2023-12-29T08:33:33;1.47;;;1.37;;
16510;SDS011;8368;48.772;8.754;2023-12-29T08:35:58;1.53;;;1.53;;
16510;SDS011;8368;48.772;8.754;2023-12-29T08:38:26;1.40;;;1.40;;
16510;SDS011;8368;48.772;8.754;2023-12-29T08:40:52;2.03;;;1.93;;
16510;SDS011;8368;48.772;8.754;2023-12-29T08:43:17;1.87;;;1.77;;
16510;SDS011;8368;48.772;8.754;2023-12-29T08:45:46;1.70;;;1.60;;
16510;SDS011;8368;48.772;8.754;2023-12-29T08:48:12;1.67;;;1.63;;
16510;SDS011;8368;48.772;8.754;2023-12-29T08:50:38;1.60;;;1.50;;
16510;SDS011;8368;48.772;8.754;2023-12-29T08:53:03;1.70;;;1.70;;
16510;SDS011;8368;48.772;8.754;2023-12-29T08:55:29;1.60;;;1.50;;
16510;SDS011;8368;48.772;8.754;2023-12-29T08:57:56;1.20;;;1.10;;
16510;SDS011;8368;48.772;8.754;2023-12-29T09:00:22;1.10;;;1.10;;
16510;SDS011;8368;48.772;8.754;2023-12-29T09:02:47;1.30;;;1.30;;
16510;SDS011;8368;48.772;8.754;2023-12-29T09:05:13;1.20;;;1.20;;
16510;SDS011;8368;48.772;8.754;2023-12-29T09:07:39;1.33;;;1.33;;
16510;SDS011;8368;48.772;8.754;2023-12-29T09:10:04;1.20;;;1.20;;
16510;SDS011;8368;48.772;8.754;2023-12-29T09:12:33;1.40;;;1.30;;
16510;SDS011;8368;48.772;8.754;2023-12-29T09:14:59;1.30;;;1.30;;
16510;SDS011;8368;48.772;8.754;2023-12-29T09:17:24;1.30;;;1.23;;
16510;SDS011;8368;48.772;8.754;2023-12-29T09:19:50;1.40;;;1.40;;
16510;SDS011;8368;48.772;8.754;2023-12-29T09:22:16;1.30;;;1.30;;
16510;SDS011;8368;48.772;8.754;2023-12-29T09:24:42;1.30;;;1.30;;
16510;SDS011;8368;48.772;8.754;2023-12-29T09:27:07;1.30;;;1.30;;
16510;SDS011;8368;48.772;8.754;2023-12-29T09:29:33;1.70;;;1.60;;
16510;SDS011;8368;48.772;8.754;2023-12-29T09:31:59;1.73;;;1.67;;
16510;SDS011;8368;48.772;8.754;2023-12-29T09:34:25;1.10;;;1.10;;
16510;SDS011;8368;48.772;8.754;2023-12-29T09:36:50;1.10;;;1.10;;
16510;SDS011;8368;48.772;8.754;2023-12-29T09:39:16;1.37;;;1.37;;
16510;SDS011;8368;48.772;8.754;2023-12-29T09:41:42;1.83;;;1.40;;
16510;SDS011;8368;48.772;8.754;2023-12-29T09:44:13;1.30;;;1.30;;
16510;SDS011;8368;48.772;8.754;2023-12-29T09:46:39;0.90;;;0.90;;
16510;SDS011;8368;48.772;8.754;2023-12-29T09:49:06;0.90;;;0.90;;
16510;SDS011;8368;48.772;8.754;2023-12-29T09:51:33;1.00;;;1.00;;
16510;SDS011;8368;48.772;8.754;2023-12-29T09:54:00;0.93;;;0.93;;
16510;SDS011;8368;48.772;8.754;2023-12-29T09:56:26;2.10;;;0.87;;
16510;SDS011;8368;48.772;8.754;2023-12-29T09:58:51;1.00;;;1.00;;
16510;SDS011;8368;48.772;8.754;2023-12-29T10:01:18;0.90;;;0.90;;
16510;SDS011;8368;48.772;8.754;2023-12-29T10:03:49;0.80;;;0.80;;
16510;SDS011;8368;48.772;8.754;2023-12-29T10:06:16;0.90;;;0.90;;
16510;SDS011;8368;48.772;8.754;2023-12-29T10:08:46;1.07;;;1.07;;
16510;SDS011;8368;48.772;8.754;2023-12-29T10:11:15;0.87;;;0.87;;
16510;SDS011;8368;48.772;8.754;2023-12-29T10:13:43;1.60;;;0.90;;
16510;SDS011;8368;48.772;8.754;2023-12-29T10:19:06;1.00;;;1.00;;
16510;SDS011;8368;48.772;8.754;2023-12-29T10:24:18;0.90;;;0.90;;
16510;SDS011;8368;48.772;8.754;2023-12-29T10:26:46;0.90;;;0.90;;
16510;SDS011;8368;48.772;8.754;2023-12-29T10:29:12;1.00;;;1.00;;
16510;SDS011;8368;48.772;8.754;2023-12-29T10:31:38;0.80;;;0.80;;
16510;SDS011;8368;48.772;8.754;2023-12-29T10:34:16;0.97;;;0.97;;
16510;SDS011;8368;48.772;8.754;2023-12-29T10:36:49;1.20;;;1.20;;
16510;SDS011;8368;48.772;8.754;2023-12-29T10:39:15;0.90;;;0.90;;
16510;SDS011;8368;48.772;8.754;2023-12-29T10:41:42;1.00;;;1.00;;
16510;SDS011;8368;48.772;8.754;2023-12-29T10:44:08;0.77;;;0.77;;
16510;SDS011;8368;48.772;8.754;2023-12-29T10:46:33;0.80;;;0.80;;
16510;SDS011;8368;48.772;8.754;2023-12-29T10:49:06;1.07;;;0.97;;
16510;SDS011;8368;48.772;8.754;2023-12-29T10:51:34;1.00;;;1.00;;
16510;SDS011;8368;48.772;8.754;2023-12-29T10:54:02;0.97;;;0.97;;
16510;SDS011;8368;48.772;8.754;2023-12-29T10:56:28;1.10;;;1.10;;
16510;SDS011;8368;48.772;8.754;2023-12-29T10:59:02;1.33;;;1.33;;
16510;SDS011;8368;48.772;8.754;2023-12-29T11:01:29;1.10;;;1.10;;
16510;SDS011;8368;48.772;8.754;2023-12-29T11:04:00;1.13;;;1.03;;
16510;SDS011;8368;48.772;8.754;2023-12-29T11:06:27;0.80;;;0.80;;
16510;SDS011;8368;48.772;8.754;2023-12-29T11:08:56;1.10;;;1.10;;
16510;SDS011;8368;48.772;8.754;2023-12-29T11:11:22;1.00;;;1.00;;
16510;SDS011;8368;48.772;8.754;2023-12-29T11:13:48;0.93;;;0.93;;
16510;SDS011;8368;48.772;8.754;2023-12-29T11:16:14;0.80;;;0.80;;
16510;SDS011;8368;48.772;8.754;2023-12-29T11:18:43;1.00;;;1.00;;
16510;SDS011;8368;48.772;8.754;2023-12-29T11:21:11;1.80;;;1.70;;
16510;SDS011;8368;48.772;8.754;2023-12-29T11:23:37;1.10;;;1.10;;
16510;SDS011;8368;48.772;8.754;2023-12-29T11:26:03;0.87;;;0.87;;
16510;SDS011;8368;48.772;8.754;2023-12-29T11:28:29;0.93;;;0.93;;
16510;SDS011;8368;48.772;8.754;2023-12-29T11:30:55;1.10;;;1.00;;
16510;SDS011;8368;48.772;8.754;2023-12-29T11:33:23;0.80;;;0.80;;
16510;SDS011;8368;48.772;8.754;2023-12-29T11:38:59;2.83;;;1.10;;
16510;SDS011;8368;48.772;8.754;2023-12-29T11:41:47;1.07;;;1.07;;
16510;SDS011;8368;48.772;8.754;2023-12-29T11:44:35;0.83;;;0.83;;
16510;SDS011;8368;48.772;8.754;2023-12-29T11:47:01;1.00;;;1.00;;
16510;SDS011;8368;48.772;8.754;2023-12-29T11:49:27;1.23;;;0.80;;
16510;SDS011;8368;48.772;8.754;2023-12-29T11:52:32;0.90;;;0.90;;
16510;SDS011;8368;48.772;8.754;2023-12-29T11:55:11;1.10;;;1.10;;
16510;SDS011;8368;48.772;8.754;2023-12-29T11:57:38;0.90;;;0.90;;
16510;SDS011;8368;48.772;8.754;2023-12-29T12:00:05;0.93;;;0.93;;
16510;SDS011;8368;48.772;8.754;2023-12-29T12:02:32;3.50;;;0.97;;
16510;SDS011;8368;48.772;8.754;2023-12-29T12:04:57;0.80;;;0.80;;
16510;SDS011;8368;48.772;8.754;2023-12-29T12:10:57;0.97;;;0.97;;
16510;SDS011;8368;48.772;8.754;2023-12-29T12:13:55;0.97;;;0.97;;
16510;SDS011;8368;48.772;8.754;2023-12-29T12:19:12;0.80;;;0.80;;
16510;SDS011;8368;48.772;8.754;2023-12-29T12:21:38;1.00;;;1.00;;
16510;SDS011;8368;48.772;8.754;2023-12-29T12:24:05;0.97;;;0.97;;
16510;SDS011;8368;48.772;8.754;2023-12-29T12:26:31;1.07;;;1.07;;
16510;SDS011;8368;48.772;8.754;2023-12-29T12:28:57;1.20;;;1.20;;
16510;SDS011;8368;48.772;8.754;2023-12-29T12:31:23;1.10;;;1.10;;
16510;SDS011;8368;48.772;8.754;2023-12-29T12:33:55;1.20;;;1.20;;
16510;SDS011;8368;48.772;8.754;2023-12-29T12:36:22;1.00;;;1.00;;
16510;SDS011;8368;48.772;8.754;2023-12-29T12:38:55;0.90;;;0.90;;
16510;SDS011;8368;48.772;8.754;2023-12-29T12:41:22;1.20;;;1.20;;
16510;SDS011;8368;48.772;8.754;2023-12-29T12:44:06;1.20;;;1.20;;
16510;SDS011;8368;48.772;8.754;2023-12-29T12:49:22;1.00;;;1.00;;
16510;SDS011;8368;48.772;8.754;2023-12-29T12:51:47;1.13;;;1.13;;
16510;SDS011;8368;48.772;8.754;2023-12-29T12:54:17;1.10;;;1.10;;
16510;SDS011;8368;48.772;8.754;2023-12-29T12:56:44;1.03;;;1.03;;
16510;SDS011;8368;48.772;8.754;2023-12-29T12:59:11;1.10;;;1.10;;
16510;SDS011;8368;48.772;8.754;2023-12-29T13:01:37;1.10;;;1.00;;
16510;SDS011;8368;48.772;8.754;2023-12-29T13:04:03;1.10;;;1.10;;
16510;SDS011;8368;48.772;8.754;2023-12-29T13:06:31;1.07;;;1.07;;
16510;SDS011;8368;48.772;8.754;2023-12-29T13:08:58;0.87;;;0.87;;
16510;SDS011;8368;48.772;8.754;2023-12-29T13:11:24;0.93;;;0.93;;
16510;SDS011;8368;48.772;8.754;2023-12-29T13:13:52;0.97;;;0.97;;
16510;SDS011;8368;48.772;8.754;2023-12-29T13:16:29;0.90;;;0.90;;
16510;SDS011;8368;48.772;8.754;2023-12-29T13:18:56;0.90;;;0.90;;
16510;SDS011;8368;48.772;8.754;2023-12-29T13:21:22;1.23;;;1.13;;
16510;SDS011;8368;48.772;8.754;2023-12-29T13:23:47;1.27;;;1.10;;
16510;SDS011;8368;48.772;8.754;2023-12-29T13:26:13;0.93;;;0.93;;
16510;SDS011;8368;48.772;8.754;2023-12-29T13:28:39;1.00;;;1.00;;
16510;SDS011;8368;48.772;8.754;2023-12-29T13:31:05;1.00;;;1.00;;
16510;SDS011;8368;48.772;8.754;2023-12-29T13:33:49;1.10;;;1.10;;
16510;SDS011;8368;48.772;8.754;2023-12-29T13:36:35;0.90;;;0.90;;
16510;SDS011;8368;48.772;8.754;2023-12-29T13:39:09;1.47;;;1.23;;
16510;SDS011;8368;48.772;8.754;2023-12-29T13:41:40;1.03;;;1.03;;
16510;SDS011;8368;48.772;8.754;2023-12-29T13:44:07;0.80;;;0.80;;
16510;SDS011;8368;48.772;8.754;2023-12-29T13:46:33;1.10;;;1.10;;
16510;SDS011;8368;48.772;8.754;2023-12-29T13:49:00;1.07;;;1.07;;
16510;SDS011;8368;48.772;8.754;2023-12-29T13:51:28;1.10;;;1.10;;
16510;SDS011;8368;48.772;8.754;2023-12-29T13:54:00;2.73;;;1.20;;
16510;SDS011;8368;48.772;8.754;2023-12-29T13:56:26;1.07;;;1.07;;
16510;SDS011;8368;48.772;8.754;2023-12-29T13:58:51;0.93;;;0.93;;
16510;SDS011;8368;48.772;8.754;2023-12-29T14:01:17;1.10;;;1.10;;
16510;SDS011;8368;48.772;8.754;2023-12-29T14:03:46;2.10;;;1.00;;
16510;SDS011;8368;48.772;8.754;2023-12-29T14:06:22;1.03;;;1.00;;
16510;SDS011;8368;48.772;8.754;2023-12-29T14:08:56;1.10;;;1.10;;
16510;SDS011;8368;48.772;8.754;2023-12-29T14:11:22;0.90;;;0.90;;
16510;SDS011;8368;48.772;8.754;2023-12-29T14:13:48;1.43;;;1.33;;
16510;SDS011;8368;48.772;8.754;2023-12-29T14:16:13;1.43;;;1.10;;
16510;SDS011;8368;48.772;8.754;2023-12-29T14:18:52;1.10;;;1.10;;
16510;SDS011;8368;48.772;8.754;2023-12-29T14:24:00;1.00;;;1.00;;
16510;SDS011;8368;48.772;8.754;2023-12-29T14:26:26;1.10;;;1.10;;
16510;SDS011;8368;48.772;8.754;2023-12-29T14:31:26;0.80;;;0.80;;
16510;SDS011;8368;48.772;8.754;2023-12-29T14:33:52;1.57;;;1.20;;
16510;SDS011;8368;48.772;8.754;2023-12-29T14:36:17;0.80;;;0.80;;
16510;SDS011;8368;48.772;8.754;2023-12-29T14:38:43;1.47;;;1.30;;
16510;SDS011;8368;48.772;8.754;2023-12-29T14:41:08;0.80;;;0.80;;
16510;SDS011;8368;48.772;8.754;2023-12-29T14:43:34;2.57;;;1.33;;
16510;SDS011;8368;48.772;8.754;2023-12-29T14:45:59;1.30;;;1.20;;
16510;SDS011;8368;48.772;8.754;2023-12-29T14:48:25;1.13;;;1.13;;
16510;SDS011;8368;48.772;8.754;2023-12-29T14:50:50;0.90;;;0.90;;
16510;SDS011;8368;48.772;8.754;2023-12-29T14:53:16;1.43;;;1.33;;
16510;SDS011;8368;48.772;8.754;2023-12-29T14:55:41;1.10;;;1.10;;
16510;SDS011;8368;48.772;8.754;2023-12-29T14:58:07;1.10;;;1.10;;
16510;SDS011;8368;48.772;8.754;2023-12-29T15:00:32;3.87;;;1.17;;
16510;SDS011;8368;48.772;8.754;2023-12-29T15:02:58;1.70;;;1.57;;
16510;SDS011;8368;48.772;8.754;2023-12-29T15:05:23;2.10;;;1.30;;
16510;SDS011;8368;48.772;8.754;2023-12-29T15:07:49;1.00;;;1.00;;
16510;SDS011;8368;48.772;8.754;2023-12-29T15:10:15;0.97;;;0.97;;
16510;SDS011;8368;48.772;8.754;2023-12-29T15:12:40;0.90;;;0.90;;
16510;SDS011;8368;48.772;8.754;2023-12-29T15:15:08;1.47;;;1.40;;
16510;SDS011;8368;48.772;8.754;2023-12-29T15:17:36;1.20;;;1.20;;
16510;SDS011;8368;48.772;8.754;2023-12-29T15:20:02;1.00;;;1.00;;
16510;SDS011;8368;48.772;8.754;2023-12-29T15:22:28;1.17;;;1.17;;
16510;SDS011;8368;48.772;8.754;2023-12-29T15:24:53;1.67;;;1.20;;